createdAt,value
2022-12-23T00:00:54.186Z,75.72
2022-12-23T00:11:23.148Z,76.02
2022-12-23T00:21:50.741Z,76.34
2022-12-23T00:32:18.447Z,76.48
2022-12-23T00:42:55.091Z,76.67
2022-12-23T00:53:23.336Z,76.96
2022-12-23T01:04:08.111Z,77.00
2022-12-23T01:14:35.724Z,77.13
2022-12-23T01:25:03.673Z,76.88
2022-12-23T01:35:31.327Z,76.87
2022-12-23T01:45:58.986Z,77.28
2022-12-23T01:56:31.066Z,76.94
2022-12-23T02:07:15.726Z,77.13
2022-12-23T02:17:54.203Z,76.87
2022-12-23T02:28:51.413Z,76.85
2022-12-23T02:39:26.939Z,76.13
2022-12-23T02:49:58.849Z,76.55
2022-12-23T03:00:26.434Z,76.81
2022-12-23T03:11:09.274Z,76.74
2022-12-23T03:21:44.479Z,77.06
2022-12-23T03:32:15.931Z,76.64
2022-12-23T03:42:46.717Z,76.11
2022-12-23T03:53:18.671Z,75.46
2022-12-23T04:03:56.216Z,75.50
2022-12-23T04:14:24.642Z,75.31
2022-12-23T04:24:52.143Z,74.71
2022-12-23T04:35:19.813Z,74.03
2022-12-23T04:45:52.995Z,73.21
2022-12-23T04:56:20.632Z,72.50
2022-12-23T05:06:48.133Z,72.82
2022-12-23T05:17:15.889Z,72.51
2022-12-23T05:27:43.483Z,73.01
2022-12-23T05:38:11.126Z,72.91
2022-12-23T05:48:38.736Z,71.67
2022-12-23T05:59:06.310Z,71.26
2022-12-23T06:09:33.953Z,71.31
2022-12-23T06:20:01.538Z,71.01
2022-12-23T06:30:29.150Z,70.97
2022-12-23T06:40:56.743Z,70.76
2022-12-23T06:51:24.308Z,70.29
2022-12-23T07:01:51.864Z,70.18
2022-12-23T07:12:19.632Z,70.25
2022-12-23T07:22:47.183Z,70.53
2022-12-23T07:33:14.834Z,71.04
2022-12-23T07:43:42.390Z,72.05
2022-12-23T07:54:12.810Z,73.05
2022-12-23T08:04:45.633Z,73.65
2022-12-23T08:15:14.348Z,74.01
2022-12-23T08:25:42.216Z,74.91
2022-12-23T08:36:11.794Z,75.73
2022-12-23T08:46:40.112Z,76.42
2022-12-23T08:57:07.868Z,76.77
2022-12-23T09:07:35.378Z,77.18
2022-12-23T09:18:03.103Z,77.69
2022-12-23T09:28:31.310Z,78.01
2022-12-23T09:38:59.775Z,78.35
2022-12-23T09:49:28.469Z,78.59
2022-12-23T10:00:02.784Z,78.83
2022-12-23T10:10:36.553Z,78.94
2022-12-23T10:21:08.855Z,78.97
2022-12-23T10:31:47.745Z,78.93
2022-12-23T10:42:25.714Z,78.61
2022-12-23T10:52:58.020Z,78.63
2022-12-23T11:03:30.686Z,78.82
2022-12-23T11:13:58.684Z,78.81
2022-12-23T11:24:28.276Z,78.93
2022-12-23T11:34:57.382Z,79.10
2022-12-23T11:45:28.117Z,79.23
2022-12-23T11:56:04.369Z,79.18
2022-12-23T12:06:32.735Z,79.37
2022-12-23T12:17:07.187Z,79.07
2022-12-23T12:27:40.302Z,78.75
2022-12-23T12:38:17.245Z,78.93
2022-12-23T12:48:51.803Z,79.13
2022-12-23T12:59:24.259Z,79.19
2022-12-23T13:10:01.992Z,79.28
2022-12-23T13:20:35.014Z,79.58
2022-12-23T13:31:07.763Z,79.33
2022-12-23T13:41:40.106Z,79.35
2022-12-23T13:52:13.160Z,79.31
2022-12-23T14:02:53.022Z,79.49
2022-12-23T14:13:24.073Z,79.36
2022-12-23T14:24:04.942Z,79.43
2022-12-23T14:34:36.310Z,79.31
2022-12-23T14:45:34.962Z,79.08
2022-12-23T14:56:24.679Z,79.36
2022-12-23T15:06:55.983Z,79.12
2022-12-23T15:17:29.417Z,79.07
2022-12-23T15:28:01.894Z,79.01
2022-12-23T15:38:33.448Z,78.76
2022-12-23T15:49:01.366Z,78.47
2022-12-23T15:59:33.642Z,78.22
2022-12-23T16:10:05.605Z,78.47
2022-12-23T16:20:41.188Z,78.56
2022-12-23T16:31:11.523Z,78.53
2022-12-23T16:41:39.160Z,78.38
2022-12-23T16:52:09.381Z,78.52
2022-12-23T17:02:37.181Z,78.38
2022-12-23T17:13:04.983Z,78.31
2022-12-23T17:23:33.961Z,78.45
2022-12-23T17:34:01.879Z,78.44
2022-12-23T17:44:29.457Z,78.79
2022-12-23T17:54:57.307Z,78.39
2022-12-23T18:05:27.600Z,77.90
2022-12-23T18:15:55.079Z,78.00
2022-12-23T18:26:22.816Z,77.35
2022-12-23T18:36:51.919Z,77.34
2022-12-23T18:47:19.792Z,77.79
2022-12-23T18:57:47.304Z,77.63
2022-12-23T19:08:18.930Z,77.78
2022-12-23T19:18:50.467Z,77.75
2022-12-23T19:29:18.260Z,77.56
2022-12-23T19:39:45.988Z,77.19
2022-12-23T19:50:14.540Z,77.31
2022-12-23T20:00:42.338Z,77.36
2022-12-23T20:11:12.468Z,77.52
2022-12-23T20:21:40.441Z,77.03
2022-12-23T20:32:08.558Z,76.70
2022-12-23T20:42:36.642Z,76.96
2022-12-23T20:53:04.312Z,76.86
2022-12-23T21:03:31.977Z,76.04
2022-12-23T21:14:06.362Z,75.25
2022-12-23T21:24:34.861Z,75.03
2022-12-23T21:35:03.032Z,74.95
2022-12-23T21:45:30.647Z,74.74
2022-12-23T21:56:03.351Z,74.29
2022-12-23T22:06:32.853Z,73.94
2022-12-23T22:17:00.465Z,73.56
2022-12-23T22:27:28.130Z,73.34
2022-12-23T22:37:55.720Z,73.36
2022-12-23T22:48:23.339Z,73.43
2022-12-23T22:58:52.130Z,73.03
2022-12-23T23:09:18.940Z,72.79
2022-12-23T23:19:46.535Z,72.27
2022-12-23T23:30:14.954Z,72.05
2022-12-23T23:40:42.503Z,72.46
2022-12-23T23:51:10.160Z,72.42
